createdAt,value
2022-12-01T00:01:19.402Z,92.20
2022-12-01T00:03:47.246Z,86.23
2022-12-01T00:06:17.005Z,86.23
2022-12-01T00:09:06.538Z,92.73
2022-12-01T00:11:35.820Z,88.23
2022-12-01T00:14:04.182Z,85.27
2022-12-01T00:16:32.668Z,91.70
2022-12-01T00:19:00.566Z,87.93
2022-12-01T00:21:28.674Z,84.03
2022-12-01T00:23:58.473Z,78.83
2022-12-01T00:26:27.328Z,85.27
2022-12-01T00:28:58.016Z,90.07
2022-12-01T00:31:26.573Z,85.00
2022-12-01T00:33:54.632Z,81.10
2022-12-01T00:36:23.481Z,73.27
2022-12-01T00:38:53.379Z,75.63
2022-12-01T00:41:21.111Z,78.63
2022-12-01T00:43:49.134Z,74.47
2022-12-01T00:46:18.608Z,72.27
2022-12-01T00:48:46.349Z,73.80
2022-12-01T00:51:14.108Z,74.73
2022-12-01T00:53:41.862Z,75.67
2022-12-01T00:56:09.602Z,68.37
2022-12-01T00:58:37.323Z,73.50
2022-12-01T01:01:05.288Z,71.47
2022-12-01T01:03:35.386Z,80.73
2022-12-01T01:06:07.121Z,76.80
2022-12-01T01:08:36.118Z,81.67
2022-12-01T01:11:05.034Z,82.87
2022-12-01T01:13:33.010Z,81.73
2022-12-01T01:16:01.854Z,79.37
2022-12-01T01:18:30.101Z,82.40
2022-12-01T01:21:00.976Z,70.67
2022-12-01T01:23:28.705Z,74.43
2022-12-01T01:26:03.246Z,84.93
2022-12-01T01:28:31.472Z,72.37
2022-12-01T01:30:59.697Z,73.47
2022-12-01T01:33:27.519Z,70.40
2022-12-01T01:35:55.228Z,71.40
2022-12-01T01:38:24.306Z,71.23
2022-12-01T01:40:52.023Z,63.13
2022-12-01T01:43:40.379Z,59.47
2022-12-01T01:46:11.210Z,65.27
2022-12-01T01:48:41.630Z,59.33
2022-12-01T01:51:10.508Z,61.57
2022-12-01T01:53:39.839Z,60.33
2022-12-01T01:56:09.785Z,56.97
2022-12-01T01:58:39.207Z,54.13
2022-12-01T02:01:07.828Z,54.33
2022-12-01T02:03:38.225Z,53.93
2022-12-01T02:06:07.425Z,58.57
2022-12-01T02:08:38.177Z,60.23
2022-12-01T02:11:34.667Z,52.83
2022-12-01T02:14:09.904Z,49.87
2022-12-01T02:16:45.646Z,55.60
2022-12-01T02:19:42.136Z,49.73
2022-12-01T02:22:20.111Z,47.73
2022-12-01T02:25:13.869Z,50.10
2022-12-01T02:28:04.034Z,52.40
2022-12-01T02:30:41.072Z,44.93
2022-12-01T02:33:17.165Z,47.57
2022-12-01T02:35:49.581Z,46.83
2022-12-01T02:38:26.354Z,52.63
2022-12-01T02:41:02.493Z,46.33
2022-12-01T02:43:35.340Z,53.67
2022-12-01T02:46:10.869Z,55.63
2022-12-01T02:48:42.926Z,55.87
2022-12-01T02:51:14.740Z,53.53
2022-12-01T02:53:42.560Z,53.13
2022-12-01T02:56:13.544Z,58.57
2022-12-01T02:58:41.603Z,50.43
2022-12-01T03:01:25.381Z,57.73
2022-12-01T03:04:02.685Z,60.43
2022-12-01T03:06:41.865Z,54.93
2022-12-01T03:09:19.646Z,58.37
2022-12-01T03:11:56.746Z,53.17
2022-12-01T03:14:34.350Z,57.57
2022-12-01T03:17:09.073Z,56.43
2022-12-01T03:19:42.719Z,49.70
2022-12-01T03:22:14.694Z,59.40
2022-12-01T03:24:45.191Z,60.87
2022-12-01T03:27:16.177Z,62.67
2022-12-01T03:29:47.815Z,67.40
2022-12-01T03:32:21.128Z,60.20
2022-12-01T03:34:52.729Z,68.27
2022-12-01T03:37:25.287Z,64.17
2022-12-01T03:40:00.482Z,62.93
2022-12-01T03:42:34.393Z,59.13
2022-12-01T03:45:08.525Z,65.23
2022-12-01T03:47:39.532Z,74.80
2022-12-01T03:50:13.923Z,72.27
2022-12-01T03:52:49.527Z,74.00
2022-12-01T03:55:22.091Z,78.27
2022-12-01T03:57:55.270Z,77.53
2022-12-01T04:00:23.800Z,77.67
2022-12-01T04:02:57.552Z,85.07
2022-12-01T04:05:26.008Z,81.30
2022-12-01T04:07:54.382Z,92.73
2022-12-01T04:10:22.417Z,89.53
2022-12-01T04:12:49.565Z,75.27
2022-12-01T04:15:17.869Z,82.43
2022-12-01T04:17:46.034Z,86.33
2022-12-01T04:20:16.701Z,75.50
2022-12-01T04:22:44.603Z,76.00
2022-12-01T04:25:12.876Z,82.53
2022-12-01T04:27:40.868Z,79.30
2022-12-01T04:30:09.694Z,77.37
2022-12-01T04:32:39.801Z,80.20
2022-12-01T04:35:08.610Z,71.93
2022-12-01T04:37:38.116Z,77.00
2022-12-01T04:40:07.347Z,90.17
2022-12-01T04:42:35.382Z,85.10
2022-12-01T04:45:03.169Z,82.83
2022-12-01T04:47:30.882Z,77.10
2022-12-01T04:49:58.599Z,75.23
2022-12-01T04:52:29.463Z,84.47
2022-12-01T04:55:03.354Z,77.07
2022-12-01T04:57:31.071Z,83.63
2022-12-01T04:59:58.768Z,77.63
2022-12-01T05:02:26.661Z,77.40
2022-12-01T05:04:54.433Z,70.70
2022-12-01T05:07:22.209Z,83.30
2022-12-01T05:09:50.347Z,95.60
2022-12-01T05:12:19.901Z,76.20
2022-12-01T05:14:47.653Z,83.30
2022-12-01T05:17:15.382Z,94.87
2022-12-01T05:20:09.100Z,81.17
2022-12-01T05:23:04.298Z,77.27
2022-12-01T05:25:24.527Z,82.30
2022-12-01T05:27:53.653Z,85.90
2022-12-01T05:30:27.012Z,78.13
2022-12-01T05:32:56.464Z,96.17
2022-12-01T05:35:24.205Z,79.10
2022-12-01T05:37:51.908Z,88.57
2022-12-01T05:40:19.880Z,77.60
2022-12-01T05:42:47.613Z,87.97
2022-12-01T05:45:16.993Z,79.83
2022-12-01T05:47:44.721Z,86.40
2022-12-01T05:50:12.596Z,87.03
2022-12-01T05:52:40.351Z,90.23
2022-12-01T05:55:08.987Z,77.97
2022-12-01T05:57:36.707Z,82.93
2022-12-01T06:00:05.934Z,79.23
2022-12-01T06:02:35.075Z,79.60
2022-12-01T06:05:02.798Z,87.23
2022-12-01T06:07:30.777Z,83.37
2022-12-01T06:09:58.551Z,88.43
2022-12-01T06:12:26.282Z,83.67
2022-12-01T06:14:54.050Z,79.63
2022-12-01T06:17:21.781Z,79.83
2022-12-01T06:19:51.194Z,77.93
2022-12-01T06:22:19.053Z,66.00
2022-12-01T06:24:46.771Z,79.50
2022-12-01T06:27:14.626Z,68.00
2022-12-01T06:29:44.862Z,72.70
2022-12-01T06:32:12.582Z,73.83
2022-12-01T06:34:40.328Z,69.93
2022-12-01T06:37:09.397Z,64.27
2022-12-01T06:39:37.130Z,74.97
2022-12-01T06:42:05.074Z,73.13
2022-12-01T06:44:32.807Z,70.23
2022-12-01T06:47:00.545Z,74.67
2022-12-01T06:49:28.276Z,63.60
2022-12-01T06:51:55.992Z,66.40
2022-12-01T06:54:25.074Z,65.20
2022-12-01T06:56:52.836Z,61.40
2022-12-01T06:59:20.930Z,60.23
2022-12-01T07:01:49.150Z,56.23
2022-12-01T07:04:17.005Z,57.47
2022-12-01T07:06:44.764Z,53.47
2022-12-01T07:09:12.534Z,56.80
2022-12-01T07:11:41.602Z,48.70
2022-12-01T07:14:17.967Z,44.60
2022-12-01T07:16:45.724Z,53.03
2022-12-01T07:19:13.485Z,58.47
2022-12-01T07:21:41.416Z,54.87
2022-12-01T07:24:09.471Z,54.73
2022-12-01T07:26:37.210Z,56.50
2022-12-01T07:29:07.659Z,58.67
2022-12-01T07:31:35.406Z,61.30
2022-12-01T07:34:03.179Z,54.90
2022-12-01T07:36:30.917Z,58.53
2022-12-01T07:39:07.546Z,64.43
2022-12-01T07:41:35.926Z,69.67
2022-12-01T07:44:03.875Z,68.60
2022-12-01T07:46:33.048Z,59.00
2022-12-01T07:49:00.786Z,65.80
2022-12-01T07:51:29.005Z,64.80
2022-12-01T07:53:58.663Z,68.13
2022-12-01T07:56:28.706Z,73.47
2022-12-01T07:58:56.694Z,68.53
2022-12-01T08:01:28.242Z,72.27
2022-12-01T08:03:59.217Z,70.97
2022-12-01T08:06:27.669Z,87.60
2022-12-01T08:08:55.929Z,83.20
2022-12-01T08:11:25.498Z,83.63
2022-12-01T08:13:54.188Z,84.47
2022-12-01T08:16:24.353Z,91.20
2022-12-01T08:18:52.700Z,77.20
2022-12-01T08:21:23.467Z,81.23
2022-12-01T08:23:54.650Z,85.87
2022-12-01T08:26:23.679Z,95.83
2022-12-01T08:28:58.894Z,90.60
2022-12-01T08:31:28.808Z,78.80
2022-12-01T08:33:56.947Z,77.57
2022-12-01T08:36:26.644Z,83.80
2022-12-01T08:38:56.238Z,86.60
2022-12-01T08:41:25.253Z,89.27
2022-12-01T08:43:58.343Z,104.87
2022-12-01T08:46:27.786Z,97.13
2022-12-01T08:48:57.431Z,88.17
2022-12-01T08:51:27.405Z,101.70
2022-12-01T08:53:57.424Z,99.80
2022-12-01T08:56:28.412Z,94.37
2022-12-01T08:58:56.678Z,99.40
2022-12-01T09:01:25.883Z,86.67
2022-12-01T09:04:05.899Z,84.27
2022-12-01T09:06:39.462Z,99.50
2022-12-01T09:09:07.797Z,105.83
2022-12-01T09:11:35.576Z,93.83
2022-12-01T09:14:03.369Z,101.67
2022-12-01T09:16:31.444Z,100.27
2022-12-01T09:18:59.266Z,105.57
2022-12-01T09:21:30.385Z,109.47
2022-12-01T09:23:59.524Z,119.60
2022-12-01T09:26:28.042Z,99.10
2022-12-01T09:28:57.857Z,94.73
2022-12-01T09:31:25.837Z,101.33
2022-12-01T09:33:56.921Z,90.53
2022-12-01T09:36:24.846Z,81.80
2022-12-01T09:38:52.651Z,99.53
2022-12-01T09:41:25.494Z,106.10
2022-12-01T09:43:59.694Z,104.77
2022-12-01T09:46:33.255Z,96.77
2022-12-01T09:49:03.795Z,97.07
2022-12-01T09:51:34.842Z,86.73
2022-12-01T09:54:03.351Z,82.10
2022-12-01T09:56:37.278Z,94.03
2022-12-01T09:59:08.670Z,89.10
2022-12-01T10:01:39.651Z,80.80
2022-12-01T10:04:13.004Z,86.07
2022-12-01T10:06:47.476Z,85.27
2022-12-01T10:09:24.454Z,90.97
2022-12-01T10:12:00.298Z,85.37
2022-12-01T10:14:31.107Z,79.03
2022-12-01T10:17:05.433Z,82.10
2022-12-01T10:19:40.756Z,64.57
2022-12-01T10:22:23.728Z,73.93
2022-12-01T10:24:57.174Z,79.80
2022-12-01T10:27:44.646Z,79.50
2022-12-01T10:30:16.854Z,71.77
2022-12-01T10:32:52.472Z,79.43
2022-12-01T10:35:22.584Z,69.73
2022-12-01T10:37:55.614Z,84.40
2022-12-01T10:40:23.852Z,62.67
2022-12-01T10:42:53.300Z,73.63
2022-12-01T10:45:23.955Z,61.90
2022-12-01T10:48:15.386Z,72.80
2022-12-01T10:50:44.338Z,81.73
2022-12-01T10:53:28.544Z,69.63
2022-12-01T10:56:07.259Z,74.67
2022-12-01T10:58:44.489Z,71.80
2022-12-01T11:01:19.146Z,70.47
2022-12-01T11:03:52.712Z,72.20
2022-12-01T11:06:26.621Z,72.43
2022-12-01T11:08:57.910Z,75.83
2022-12-01T11:11:35.169Z,67.87
2022-12-01T11:14:06.887Z,70.40
2022-12-01T11:16:41.605Z,69.73
2022-12-01T11:19:23.545Z,69.10
2022-12-01T11:21:56.467Z,65.13
2022-12-01T11:24:35.724Z,75.97
2022-12-01T11:27:03.495Z,67.90
2022-12-01T11:29:36.854Z,71.80
2022-12-01T11:32:17.165Z,72.83
2022-12-01T11:34:50.909Z,66.53
2022-12-01T11:37:21.309Z,74.27
2022-12-01T11:39:50.378Z,70.40
2022-12-01T11:42:24.213Z,78.30
2022-12-01T11:44:56.618Z,64.80
2022-12-01T11:47:26.519Z,67.57
2022-12-01T11:49:56.637Z,75.63
2022-12-01T11:52:28.293Z,73.77
2022-12-01T11:54:58.024Z,73.80
2022-12-01T11:57:34.228Z,67.77
2022-12-01T12:00:14.195Z,76.17
2022-12-01T12:02:52.359Z,81.63
2022-12-01T12:05:45.318Z,71.50
2022-12-01T12:08:24.077Z,77.10
2022-12-01T12:11:01.938Z,71.63
2022-12-01T12:13:46.053Z,75.07
2022-12-01T12:16:21.570Z,71.70
2022-12-01T12:19:04.393Z,75.00
2022-12-01T12:21:35.417Z,75.00
2022-12-01T12:24:25.282Z,89.67
2022-12-01T12:27:01.459Z,79.40
2022-12-01T12:29:42.556Z,81.27
2022-12-01T12:32:38.009Z,79.73
2022-12-01T12:35:18.997Z,74.03
2022-12-01T12:37:52.527Z,78.77
2022-12-01T12:40:37.534Z,80.97
2022-12-01T12:43:21.003Z,79.73
2022-12-01T12:46:00.966Z,80.77
2022-12-01T12:49:18.221Z,72.90
2022-12-01T12:51:43.612Z,74.70
2022-12-01T12:54:21.968Z,76.27
2022-12-01T12:56:55.133Z,81.03
2022-12-01T12:59:29.211Z,84.87
2022-12-01T13:02:02.292Z,79.17
2022-12-01T13:04:40.133Z,81.23
2022-12-01T13:07:11.834Z,86.50
2022-12-01T13:09:43.411Z,92.07
2022-12-01T13:12:15.950Z,75.37
2022-12-01T13:14:47.452Z,77.50
2022-12-01T13:17:21.189Z,84.90
2022-12-01T13:19:50.675Z,81.60
2022-12-01T13:22:22.881Z,83.23
2022-12-01T13:24:50.900Z,85.33
2022-12-01T13:27:22.323Z,84.30
2022-12-01T13:29:51.725Z,75.37
2022-12-01T13:32:31.722Z,81.13
2022-12-01T13:35:02.689Z,82.10
2022-12-01T13:37:32.916Z,85.07
2022-12-01T13:40:10.852Z,82.43
2022-12-01T13:42:39.894Z,82.10
2022-12-01T13:45:18.395Z,79.73
2022-12-01T13:47:51.865Z,86.70
2022-12-01T13:50:56.164Z,83.60
2022-12-01T13:53:33.003Z,77.43
2022-12-01T13:56:26.219Z,75.50
2022-12-01T13:58:55.341Z,66.27
2022-12-01T14:01:45.854Z,73.53
2022-12-01T14:04:29.185Z,66.97
2022-12-01T14:07:20.562Z,77.67
2022-12-01T14:09:50.388Z,70.37
2022-12-01T14:12:22.038Z,72.27
2022-12-01T14:14:55.778Z,77.87
2022-12-01T14:17:30.486Z,79.90
2022-12-01T14:20:08.416Z,75.07
2022-12-01T14:22:40.132Z,75.03
2022-12-01T14:25:24.341Z,73.40
2022-12-01T14:27:53.836Z,77.07
2022-12-01T14:30:58.811Z,61.67
2022-12-01T14:33:47.491Z,73.30
2022-12-01T14:36:23.783Z,63.67
2022-12-01T14:39:00.059Z,75.73
2022-12-01T14:41:30.740Z,75.57
2022-12-01T14:44:04.602Z,79.97
2022-12-01T14:46:40.511Z,70.90
2022-12-01T14:49:14.090Z,61.83
2022-12-01T14:51:47.016Z,75.03
2022-12-01T14:54:24.801Z,75.40
2022-12-01T14:56:55.902Z,76.60
2022-12-01T14:59:26.638Z,133.43
2022-12-01T15:02:08.885Z,72.60
2022-12-01T15:04:37.578Z,76.17
2022-12-01T15:07:05.334Z,76.20
2022-12-01T15:09:35.495Z,79.70
2022-12-01T15:12:07.350Z,78.00
2022-12-01T15:14:37.566Z,70.67
2022-12-01T15:17:06.938Z,77.13
2022-12-01T15:19:37.698Z,95.90
2022-12-01T15:22:12.532Z,74.63
2022-12-01T15:24:42.698Z,76.43
2022-12-01T15:27:26.012Z,72.90
2022-12-01T15:29:57.113Z,82.80
2022-12-01T15:32:26.004Z,89.00
2022-12-01T15:34:55.751Z,86.83
2022-12-01T15:37:27.762Z,70.37
2022-12-01T15:43:02.641Z,79.87
2022-12-01T15:45:30.459Z,66.37
2022-12-01T15:47:59.555Z,81.63
2022-12-01T15:50:31.155Z,75.93
2022-12-01T15:53:00.293Z,72.20
2022-12-01T15:55:32.465Z,77.80
2022-12-01T15:58:01.095Z,75.20
2022-12-01T16:00:29.146Z,75.13
2022-12-01T16:03:00.161Z,70.97
2022-12-01T16:05:31.491Z,71.47
2022-12-01T16:08:14.216Z,74.90
2022-12-01T16:10:43.485Z,72.80
2022-12-01T16:13:45.819Z,73.43
2022-12-01T16:16:39.070Z,77.37
2022-12-01T16:19:26.332Z,79.60
2022-12-01T16:21:57.634Z,67.30
2022-12-01T16:24:29.833Z,70.67
2022-12-01T16:27:02.372Z,68.27
2022-12-01T16:29:32.613Z,69.87
2022-12-01T16:32:20.146Z,62.37
2022-12-01T16:34:48.958Z,61.53
2022-12-01T16:37:17.033Z,61.67
2022-12-01T16:39:44.945Z,64.23
2022-12-01T16:42:16.285Z,70.03
2022-12-01T16:44:44.770Z,61.47
2022-12-01T16:47:17.674Z,57.73
2022-12-01T16:49:45.483Z,60.57
2022-12-01T16:52:43.252Z,59.17
2022-12-01T16:55:00.956Z,65.63
2022-12-01T16:57:30.563Z,52.10
2022-12-01T16:59:58.246Z,54.03
2022-12-01T17:02:25.972Z,60.47
2022-12-01T17:04:53.802Z,53.77
2022-12-01T17:07:21.634Z,55.97
2022-12-01T17:09:49.388Z,52.20
2022-12-01T17:12:17.112Z,62.47
2022-12-01T17:14:46.218Z,54.50
2022-12-01T17:17:13.938Z,56.47
2022-12-01T17:19:41.674Z,55.63
2022-12-01T17:22:09.383Z,57.27
2022-12-01T17:24:37.148Z,55.13
2022-12-01T17:27:04.971Z,56.97
2022-12-01T17:29:32.928Z,54.03
2022-12-01T17:32:02.037Z,53.80
2022-12-01T17:34:29.793Z,54.57
2022-12-01T17:36:57.690Z,56.30
2022-12-01T17:39:25.375Z,55.83
2022-12-01T17:41:54.973Z,55.30
2022-12-01T17:44:22.698Z,54.10
2022-12-01T17:46:50.480Z,55.63
2022-12-01T17:49:19.677Z,51.37
2022-12-01T17:51:47.414Z,51.57
2022-12-01T17:54:15.223Z,52.87
2022-12-01T17:56:43.008Z,52.33
2022-12-01T17:59:10.860Z,52.00
2022-12-01T18:01:39.599Z,50.83
2022-12-01T18:04:07.615Z,55.77
2022-12-01T18:06:36.973Z,54.47
2022-12-01T18:09:04.914Z,53.93
2022-12-01T18:11:32.901Z,55.17
2022-12-01T18:14:01.965Z,52.30
2022-12-01T18:16:31.877Z,56.67
2022-12-01T18:19:01.113Z,56.60
2022-12-01T18:21:29.689Z,53.70
2022-12-01T18:24:01.077Z,53.53
2022-12-01T18:26:30.289Z,52.33
2022-12-01T18:29:00.584Z,59.53
2022-12-01T18:31:29.927Z,55.07
2022-12-01T18:34:02.620Z,54.00
2022-12-01T18:36:31.317Z,54.70
2022-12-01T18:39:01.634Z,52.33
2022-12-01T18:41:29.890Z,61.03
2022-12-01T18:43:57.704Z,59.33
2022-12-01T18:46:25.683Z,60.37
2022-12-01T18:49:00.395Z,60.70
2022-12-01T18:51:28.839Z,61.57
2022-12-01T18:53:57.304Z,60.53
2022-12-01T18:56:29.888Z,55.10
2022-12-01T18:58:58.731Z,59.27
2022-12-01T19:01:28.930Z,58.13
2022-12-01T19:03:57.838Z,55.10
2022-12-01T19:06:26.862Z,53.27
2022-12-01T19:08:55.454Z,58.57
2022-12-01T19:11:23.286Z,68.63
2022-12-01T19:13:52.375Z,54.87
2022-12-01T19:16:20.895Z,58.73
2022-12-01T19:18:48.800Z,60.20
2022-12-01T19:21:18.684Z,60.40
2022-12-01T19:23:47.185Z,61.87
2022-12-01T19:26:17.702Z,60.33
2022-12-01T19:28:46.393Z,61.43
2022-12-01T19:31:18.205Z,61.87
2022-12-01T19:33:46.105Z,62.90
2022-12-01T19:36:15.882Z,61.07
2022-12-01T19:38:44.636Z,62.67
2022-12-01T19:41:13.626Z,59.90
2022-12-01T19:43:42.179Z,62.67
2022-12-01T19:46:12.746Z,56.07
2022-12-01T19:48:42.289Z,57.00
2022-12-01T19:51:17.520Z,63.30
2022-12-01T19:53:45.292Z,64.00
2022-12-01T19:56:13.833Z,59.63
2022-12-01T19:58:41.931Z,58.97
2022-12-01T20:01:12.497Z,60.23
2022-12-01T20:03:42.837Z,62.63
2022-12-01T20:06:12.314Z,66.37
2022-12-01T20:08:40.723Z,61.37
2022-12-01T20:11:09.293Z,64.13
2022-12-01T20:13:38.758Z,63.73
2022-12-01T20:16:08.685Z,57.23
2022-12-01T20:18:37.225Z,67.60
2022-12-01T20:21:08.606Z,63.47
2022-12-01T20:23:37.314Z,61.33
2022-12-01T20:26:07.093Z,61.00
2022-12-01T20:28:36.099Z,64.73
2022-12-01T20:31:04.977Z,60.67
2022-12-01T20:33:32.767Z,62.03
2022-12-01T20:36:00.579Z,61.10
2022-12-01T20:38:29.711Z,66.27
2022-12-01T20:40:57.474Z,66.83
2022-12-01T20:43:25.165Z,61.00
2022-12-01T20:45:53.043Z,60.40
2022-12-01T20:48:20.869Z,60.17
2022-12-01T20:50:48.912Z,66.40
2022-12-01T20:53:17.073Z,62.00
2022-12-01T20:55:46.757Z,67.17
2022-12-01T20:58:14.610Z,61.43
2022-12-01T21:00:44.206Z,66.13
2022-12-01T21:03:12.972Z,61.93
2022-12-01T21:05:42.404Z,56.27
2022-12-01T21:08:13.059Z,63.07
2022-12-01T21:10:42.552Z,61.63
2022-12-01T21:13:36.779Z,62.53
2022-12-01T21:16:10.806Z,68.10
2022-12-01T21:18:50.454Z,60.33
2022-12-01T21:21:24.384Z,54.37
2022-12-01T21:24:03.699Z,62.77
2022-12-01T21:26:31.425Z,63.87
2022-12-01T21:29:01.943Z,58.03
2022-12-01T21:31:29.713Z,60.37
2022-12-01T21:33:57.545Z,63.37
2022-12-01T21:36:29.980Z,66.87
2022-12-01T21:39:09.443Z,58.47
2022-12-01T21:41:37.889Z,61.07
2022-12-01T21:44:14.844Z,58.27
2022-12-01T21:46:42.729Z,62.27
2022-12-01T21:49:14.384Z,61.83
2022-12-01T21:51:42.179Z,63.37
2022-12-01T21:54:14.888Z,64.07
2022-12-01T21:56:43.029Z,65.73
2022-12-01T21:59:19.099Z,60.80
2022-12-01T22:01:47.523Z,57.83
2022-12-01T22:04:21.983Z,63.30
2022-12-01T22:06:50.900Z,60.07
2022-12-01T22:09:24.420Z,61.03
2022-12-01T22:11:54.860Z,62.13
2022-12-01T22:14:28.701Z,60.63
2022-12-01T22:16:58.448Z,68.97
2022-12-01T22:19:29.360Z,55.47
2022-12-01T22:22:15.646Z,64.47
2022-12-01T22:24:44.577Z,62.27
2022-12-01T22:27:30.490Z,59.90
2022-12-01T22:30:02.391Z,61.23
2022-12-01T22:32:35.051Z,63.67
2022-12-01T22:35:19.619Z,61.73
2022-12-01T22:37:49.571Z,64.27
2022-12-01T22:40:32.868Z,64.43
2022-12-01T22:43:13.824Z,64.57
2022-12-01T22:45:43.555Z,54.83
2022-12-01T22:48:27.464Z,61.33
2022-12-01T22:50:55.613Z,65.07
2022-12-01T22:53:29.279Z,56.87
2022-12-01T22:56:01.163Z,57.87
2022-12-01T22:58:31.672Z,68.27
2022-12-01T23:01:03.626Z,61.43
2022-12-01T23:03:32.392Z,58.67
2022-12-01T23:06:00.124Z,57.13
2022-12-01T23:08:27.869Z,57.30
2022-12-01T23:10:55.738Z,52.33
2022-12-01T23:13:25.095Z,58.97
2022-12-01T23:15:54.457Z,58.53
2022-12-01T23:18:25.153Z,57.37
2022-12-01T23:20:54.532Z,54.77
2022-12-01T23:23:27.349Z,55.00
2022-12-01T23:25:55.715Z,61.20
2022-12-01T23:28:23.685Z,57.60
2022-12-01T23:30:55.708Z,55.80
2022-12-01T23:33:26.017Z,55.70
2022-12-01T23:35:56.999Z,56.97
2022-12-01T23:38:27.348Z,54.13
2022-12-01T23:40:58.323Z,61.03
2022-12-01T23:43:29.232Z,56.27
2022-12-01T23:46:04.064Z,56.90
2022-12-01T23:48:37.057Z,56.50
2022-12-01T23:51:05.938Z,60.93
2022-12-01T23:53:34.133Z,61.27
2022-12-01T23:56:06.583Z,56.00
2022-12-01T23:58:35.145Z,59.30
